Time;durP1;ratioP1;P1;durP2;ratioP2;P2;SDS_P1;SDS_P2;PMS_P1;PMS_P2;Temp;Humidity;BMP_temperature;BMP_pressure;BME280_temperature;BME280_humidity;BME280_pressure;Samples;Min_cycle;Max_cycle;Signal;HPM_P1;HPM_P2
2022/03/21 00:01:27;;;;;;;29.65;18.15;;;12.50;48.30;;;;;;4983473;28;20058;-42
2022/03/21 00:03:54;;;;;;;28.38;17.33;;;12.40;48.20;;;;;;4982105;28;20636;-42
2022/03/21 00:06:22;;;;;;;28.35;17.50;;;12.40;48.20;;;;;;4983529;28;20058;-43
2022/03/21 00:08:49;;;;;;;27.55;17.17;;;12.30;48.20;;;;;;4983228;28;20043;-43
2022/03/21 00:11:18;;;;;;;25.83;15.57;;;12.30;48.30;;;;;;4985191;28;20050;-42
2022/03/21 00:13:46;;;;;;;36.30;17.45;;;12.30;48.50;;;;;;4982242;28;20065;-44
2022/03/21 00:16:13;;;;;;;35.63;19.58;;;12.30;48.40;;;;;;4982837;28;20046;-45
2022/03/21 00:18:41;;;;;;;29.10;17.92;;;12.30;48.50;;;;;;4984568;28;20513;-43
2022/03/21 00:21:08;;;;;;;32.22;18.17;;;12.30;48.50;;;;;;4982672;28;20491;-42
2022/03/21 00:23:36;;;;;;;36.10;19.23;;;12.30;48.50;;;;;;4982529;28;20058;-42
2022/03/21 00:26:04;;;;;;;28.67;17.85;;;12.30;48.50;;;;;;4980707;28;20087;-42
2022/03/21 00:28:33;;;;;;;34.03;18.77;;;12.30;48.60;;;;;;4982083;28;20061;-44
2022/03/21 00:31:01;;;;;;;32.50;18.52;;;12.30;48.60;;;;;;4982797;28;21139;-42
2022/03/21 00:33:29;;;;;;;29.20;17.00;;;12.30;48.80;;;;;;4985098;28;20053;-42
2022/03/21 00:35:58;;;;;;;28.83;18.27;;;12.20;48.60;;;;;;4980659;28;20059;-46
2022/03/21 00:38:27;;;;;;;30.25;16.70;;;12.20;48.70;;;;;;4981625;28;20057;-42
2022/03/21 00:40:55;;;;;;;29.63;17.58;;;12.30;48.70;;;;;;4983929;28;20054;-43
2022/03/21 00:43:24;;;;;;;34.30;18.55;;;12.20;48.70;;;;;;4984340;28;20055;-43
2022/03/21 00:45:55;;;;;;;36.35;20.45;;;12.20;48.80;;;;;;4981126;28;20050;-42
2022/03/21 00:48:24;;;;;;;35.28;19.23;;;12.20;48.80;;;;;;4983739;28;20411;-42
2022/03/21 00:50:52;;;;;;;30.63;17.13;;;12.20;48.70;;;;;;4981414;28;20057;-42
2022/03/21 00:53:19;;;;;;;29.75;17.23;;;12.20;48.70;;;;;;4983734;28;20054;-43
2022/03/21 00:55:48;;;;;;;30.00;17.48;;;12.20;48.70;;;;;;4982154;28;20487;-42
2022/03/21 00:58:16;;;;;;;29.23;17.20;;;12.20;48.70;;;;;;4983456;28;20062;-43
2022/03/21 01:00:44;;;;;;;27.98;17.48;;;12.10;48.70;;;;;;4981073;28;20061;-42
2022/03/21 01:03:13;;;;;;;33.67;18.08;;;12.10;48.70;;;;;;4983991;28;20061;-43
2022/03/21 01:05:41;;;;;;;31.33;17.58;;;12.10;48.70;;;;;;4980725;28;20054;-42
2022/03/21 01:08:09;;;;;;;30.38;17.85;;;12.20;48.80;;;;;;4982462;28;20402;-42
2022/03/21 01:10:36;;;;;;;28.83;16.73;;;12.10;48.70;;;;;;4982255;28;20825;-42
2022/03/21 01:13:04;;;;;;;31.20;16.45;;;12.10;48.70;;;;;;4982965;28;20069;-43
2022/03/21 01:15:32;;;;;;;27.42;16.20;;;12.10;48.70;;;;;;4980587;28;20065;-45
2022/03/21 01:18:00;;;;;;;25.63;16.35;;;12.10;48.70;;;;;;4983681;28;20076;-42
2022/03/21 01:20:29;;;;;;;29.75;17.05;;;12.10;48.70;;;;;;4980669;28;20050;-42
2022/03/21 01:22:56;;;;;;;27.60;16.38;;;12.10;48.80;;;;;;4981074;28;20058;-42
2022/03/21 01:25:24;;;;;;;31.60;17.42;;;12.10;48.80;;;;;;4981732;28;20054;-43
2022/03/21 01:27:52;;;;;;;30.65;17.73;;;12.10;48.90;;;;;;4982407;28;20051;-42
2022/03/21 01:30:20;;;;;;;30.02;17.88;;;12.00;48.80;;;;;;4981647;28;20069;-42
2022/03/21 01:32:47;;;;;;;28.65;17.73;;;12.00;48.80;;;;;;4983749;28;20058;-44
2022/03/21 01:35:16;;;;;;;29.42;17.08;;;12.00;48.90;;;;;;4978568;28;20061;-42
2022/03/21 01:37:46;;;;;;;29.50;16.65;;;12.00;48.90;;;;;;4981605;28;20487;-42
2022/03/21 01:40:14;;;;;;;30.92;19.00;;;12.00;48.90;;;;;;4982420;28;20415;-42
2022/03/21 01:42:43;;;;;;;41.03;19.48;;;12.00;49.00;;;;;;4980414;28;20058;-43
2022/03/21 01:45:11;;;;;;;34.10;18.50;;;12.00;49.00;;;;;;4978341;28;20061;-42
2022/03/21 01:47:39;;;;;;;31.30;17.95;;;12.00;49.00;;;;;;4981448;28;20046;-42
2022/03/21 01:50:08;;;;;;;32.53;18.55;;;12.00;49.10;;;;;;4980756;28;20058;-42
2022/03/21 01:52:37;;;;;;;29.58;17.48;;;11.90;49.10;;;;;;4982478;28;20054;-43
2022/03/21 01:57:53;;;;;;;28.23;17.92;;;11.90;49.10;;;;;;4986343;28;20054;-42
2022/03/21 02:00:21;;;;;;;31.33;17.75;;;11.90;49.00;;;;;;4980852;28;20513;-42
2022/03/21 02:02:48;;;;;;;30.75;18.38;;;11.90;49.00;;;;;;4982520;28;20065;-42
2022/03/21 02:05:16;;;;;;;28.08;16.33;;;11.90;49.00;;;;;;4978797;28;20049;-42
2022/03/21 02:07:44;;;;;;;27.55;17.05;;;11.90;49.00;;;;;;4981921;28;20058;-42
2022/03/21 02:10:13;;;;;;;32.10;18.20;;;11.80;49.00;;;;;;4982734;28;20062;-42
2022/03/21 02:12:41;;;;;;;26.55;17.42;;;11.80;49.00;;;;;;4982038;28;20536;-42
2022/03/21 02:15:10;;;;;;;31.40;17.88;;;11.80;49.00;;;;;;4976792;28;20498;-43
2022/03/21 02:17:41;;;;;;;27.67;17.05;;;11.80;49.00;;;;;;4982215;28;20054;-43
2022/03/21 02:20:09;;;;;;;30.17;17.30;;;11.80;49.00;;;;;;4982407;28;20054;-42
2022/03/21 02:22:52;;;;;;;31.40;17.40;;;11.70;48.90;;;;;;4980346;28;20054;-43
2022/03/21 02:25:36;;;;;;;33.50;18.67;;;11.70;49.00;;;;;;4980682;28;20058;-42
2022/03/21 02:28:08;;;;;;;26.88;16.83;;;11.70;49.10;;;;;;4980934;28;20061;-46
2022/03/21 02:30:38;;;;;;;26.25;16.63;;;11.70;49.00;;;;;;4978835;28;20479;-42
2022/03/21 02:33:07;;;;;;;30.42;17.40;;;11.60;48.90;;;;;;4982787;28;20058;-42
2022/03/21 02:35:35;;;;;;;30.23;17.23;;;11.70;49.00;;;;;;4981661;28;20506;-42
2022/03/21 02:38:03;;;;;;;29.88;17.45;;;11.60;49.00;;;;;;4977140;28;20061;-42
2022/03/21 02:40:31;;;;;;;30.90;17.42;;;11.60;49.00;;;;;;4986797;28;20061;-42
2022/03/21 02:43:00;;;;;;;25.42;16.58;;;11.60;49.10;;;;;;4986349;28;20062;-43
2022/03/21 02:45:27;;;;;;;25.13;16.25;;;11.60;49.20;;;;;;4984001;28;20077;-42
2022/03/21 02:47:55;;;;;;;28.48;17.33;;;11.50;49.10;;;;;;4984852;28;20392;-42
2022/03/21 02:50:39;;;;;;;30.45;18.02;;;11.50;49.60;;;;;;4985687;28;20384;-43
2022/03/21 02:53:08;;;;;;;27.35;17.13;;;11.50;49.30;;;;;;4985980;28;20058;-42
2022/03/21 02:55:36;;;;;;;30.88;17.35;;;11.50;49.20;;;;;;4982094;28;20410;-42
2022/03/21 02:58:05;;;;;;;30.40;17.45;;;11.50;49.20;;;;;;4986070;28;20062;-42
2022/03/21 03:00:32;;;;;;;35.55;17.42;;;11.50;49.30;;;;;;4984138;28;20058;-42
2022/03/21 03:03:00;;;;;;;28.20;16.75;;;11.50;49.30;;;;;;4985223;28;20061;-42
2022/03/21 03:05:27;;;;;;;30.13;17.80;;;11.50;49.30;;;;;;4981769;28;20062;-42
2022/03/21 03:07:55;;;;;;;26.45;16.80;;;11.50;49.40;;;;;;4983058;28;20050;-42
2022/03/21 03:10:22;;;;;;;28.65;17.40;;;11.50;49.40;;;;;;4986199;28;20438;-42
2022/03/21 03:12:50;;;;;;;26.70;16.67;;;11.50;49.40;;;;;;4983071;28;20074;-42
2022/03/21 03:15:19;;;;;;;27.13;16.83;;;11.40;49.40;;;;;;4982902;28;20062;-43
2022/03/21 03:17:46;;;;;;;26.75;16.67;;;11.40;49.30;;;;;;4986486;28;20050;-42
2022/03/21 03:20:14;;;;;;;23.88;15.23;;;11.50;49.30;;;;;;4985485;28;20050;-42
2022/03/21 03:22:42;;;;;;;29.63;16.05;;;11.40;49.10;;;;;;4984593;28;20058;-46
2022/03/21 03:25:10;;;;;;;29.63;15.80;;;11.40;48.90;;;;;;4982012;28;20046;-43
2022/03/21 03:27:38;;;;;;;25.42;15.70;;;11.40;48.80;;;;;;4982154;28;20521;-43
2022/03/21 03:30:06;;;;;;;27.08;16.15;;;11.40;48.70;;;;;;4984391;28;20061;-43
2022/03/21 03:32:36;;;;;;;26.58;15.88;;;11.40;48.60;;;;;;4984854;28;20058;-45
2022/03/21 03:35:04;;;;;;;26.70;16.20;;;11.30;48.40;;;;;;4982092;28;20685;-42
2022/03/21 03:37:31;;;;;;;29.13;15.68;;;11.40;48.40;;;;;;4985630;28;20062;-46
2022/03/21 03:39:58;;;;;;;26.40;16.48;;;11.30;48.20;;;;;;4985359;28;20057;-43
2022/03/21 03:42:26;;;;;;;24.92;16.13;;;11.30;48.10;;;;;;4984090;28;20183;-43
2022/03/21 03:44:54;;;;;;;25.70;16.20;;;11.30;48.00;;;;;;4983006;28;20050;-43
2022/03/21 03:47:21;;;;;;;29.23;16.05;;;11.30;47.80;;;;;;4984493;28;20525;-43
2022/03/21 03:49:50;;;;;;;28.17;15.68;;;11.20;47.70;;;;;;4983723;28;20054;-42
2022/03/21 03:52:18;;;;;;;25.00;15.57;;;11.20;47.50;;;;;;4985273;28;20059;-43
2022/03/21 03:54:45;;;;;;;25.27;14.80;;;11.20;47.50;;;;;;4980889;28;20058;-42
2022/03/21 03:57:14;;;;;;;27.38;15.88;;;11.10;47.30;;;;;;4984993;28;20081;-43
2022/03/21 03:59:41;;;;;;;25.15;14.95;;;11.10;47.30;;;;;;4984452;28;20073;-46
2022/03/21 04:02:10;;;;;;;25.02;14.43;;;11.00;47.10;;;;;;4985074;28;20502;-43
2022/03/21 04:04:36;;;;;;;27.40;16.70;;;11.00;47.10;;;;;;4981276;28;20062;-42
2022/03/21 04:07:05;;;;;;;27.67;15.13;;;11.00;47.10;;;;;;4983126;28;20050;-43
2022/03/21 04:09:33;;;;;;;25.83;15.05;;;10.90;46.90;;;;;;4982752;28;20383;-42
2022/03/21 04:12:02;;;;;;;25.90;15.30;;;10.90;46.80;;;;;;4982385;28;20058;-45
2022/03/21 04:14:30;;;;;;;27.27;15.32;;;10.90;46.70;;;;;;4981689;28;20054;-42
2022/03/21 04:16:57;;;;;;;23.27;14.18;;;10.90;46.60;;;;;;4984505;28;20069;-43
2022/03/21 04:19:24;;;;;;;22.60;13.23;;;10.80;46.40;;;;;;4980870;28;20054;-42
2022/03/21 04:21:52;;;;;;;26.15;15.07;;;10.80;46.40;;;;;;4983235;28;20069;-46
2022/03/21 04:24:21;;;;;;;25.55;14.60;;;10.80;46.40;;;;;;4978298;28;20533;-43
2022/03/21 04:26:49;;;;;;;22.60;13.60;;;10.70;46.20;;;;;;4983342;28;20070;-42
2022/03/21 04:29:16;;;;;;;21.50;13.35;;;10.70;46.20;;;;;;4983577;28;20050;-42
2022/03/21 04:31:44;;;;;;;23.90;13.60;;;10.70;46.20;;;;;;4983890;28;20058;-45
2022/03/21 04:34:11;;;;;;;24.73;14.52;;;10.70;46.10;;;;;;4980569;28;20046;-43
2022/03/21 04:36:40;;;;;;;32.92;15.60;;;10.70;45.80;;;;;;4983879;28;20478;-46
2022/03/21 04:39:07;;;;;;;22.77;13.73;;;10.80;45.50;;;;;;4983751;28;20054;-42
2022/03/21 04:41:36;;;;;;;24.50;14.73;;;10.80;45.40;;;;;;4983491;28;20058;-43
2022/03/21 04:44:04;;;;;;;54.10;27.23;;;10.80;45.30;;;;;;4982856;28;20541;-42
2022/03/21 04:46:31;;;;;;;39.30;20.10;;;10.80;45.00;;;;;;4983138;28;20054;-42
2022/03/21 04:48:59;;;;;;;28.50;15.52;;;10.80;44.90;;;;;;4981064;28;20058;-42
2022/03/21 04:51:26;;;;;;;28.63;15.32;;;10.80;44.60;;;;;;4983729;28;20054;-43
2022/03/21 04:53:54;;;;;;;24.00;14.43;;;10.70;44.50;;;;;;4979919;28;20062;-42
2022/03/21 04:56:22;;;;;;;23.50;14.50;;;10.80;44.30;;;;;;4983125;28;20042;-44
2022/03/21 04:58:51;;;;;;;26.05;14.52;;;10.80;44.20;;;;;;4983124;28;20503;-42
2022/03/21 05:01:19;;;;;;;24.20;12.95;;;10.80;44.10;;;;;;4981901;28;20441;-45
2022/03/21 05:03:47;;;;;;;21.98;12.80;;;10.70;44.30;;;;;;4982241;28;20058;-43
2022/03/21 05:06:16;;;;;;;21.73;13.48;;;10.70;44.30;;;;;;4984417;28;20066;-42
2022/03/21 05:08:44;;;;;;;38.40;19.40;;;10.70;44.10;;;;;;4969941;28;20046;-42
2022/03/21 05:11:12;;;;;;;39.33;20.45;;;10.70;44.10;;;;;;4993017;28;20050;-43
2022/03/21 05:13:39;;;;;;;28.80;15.15;;;10.70;44.10;;;;;;4964424;28;20066;-42
2022/03/21 05:16:08;;;;;;;21.33;12.85;;;10.70;44.10;;;;;;4957664;28;20062;-42
2022/03/21 05:18:36;;;;;;;23.42;13.55;;;10.70;44.00;;;;;;4962076;28;20055;-43
2022/03/21 05:21:04;;;;;;;22.38;13.50;;;10.70;43.90;;;;;;4962694;28;20526;-42
2022/03/21 05:31:50;;;;;;;28.15;15.68;;;10.60;43.40;;;;;;4967606;28;20066;-43
2022/03/21 05:37:02;;;;;;;27.77;15.32;;;10.60;43.40;;;;;;4969037;28;20061;-45
2022/03/21 05:39:30;;;;;;;24.17;14.15;;;10.60;43.50;;;;;;4962077;28;20499;-43
2022/03/21 05:41:57;;;;;;;21.35;13.38;;;10.60;43.50;;;;;;4961852;28;20415;-43
2022/03/21 05:44:25;;;;;;;21.65;13.57;;;10.60;43.60;;;;;;4962952;28;20055;-42
2022/03/21 05:46:54;;;;;;;23.00;13.73;;;10.60;43.70;;;;;;4959973;28;20070;-42
2022/03/21 05:49:20;;;;;;;20.27;12.38;;;10.60;43.60;;;;;;4962775;28;20046;-46
2022/03/21 05:51:48;;;;;;;21.83;13.07;;;10.60;43.60;;;;;;4964180;28;20054;-43
2022/03/21 05:54:15;;;;;;;21.73;13.35;;;10.60;43.70;;;;;;4960792;28;20057;-43
2022/03/21 05:56:44;;;;;;;22.08;13.13;;;10.60;43.60;;;;;;4962418;28;20077;-46
2022/03/21 06:01:55;;;;;;;19.85;12.82;;;10.50;43.70;;;;;;4935755;28;20066;-43
2022/03/21 06:04:23;;;;;;;23.80;13.73;;;10.50;43.60;;;;;;4959849;28;20051;-43
2022/03/21 06:06:50;;;;;;;21.92;13.90;;;10.50;43.60;;;;;;4961775;28;20058;-42
2022/03/21 06:09:18;;;;;;;38.55;19.20;;;10.50;43.40;;;;;;4962082;28;20057;-44
2022/03/21 06:11:48;;;;;;;53.97;26.88;;;10.50;43.30;;;;;;4961319;28;20051;-42
2022/03/21 06:14:16;;;;;;;32.05;15.88;;;10.50;43.20;;;;;;4960094;28;20058;-42
2022/03/21 06:16:44;;;;;;;22.27;13.23;;;10.50;43.20;;;;;;4963228;28;20062;-43
2022/03/21 06:19:13;;;;;;;24.00;13.93;;;10.50;43.10;;;;;;4962489;28;20054;-42
2022/03/21 06:21:41;;;;;;;22.60;12.50;;;10.50;43.30;;;;;;4963106;28;20061;-43
2022/03/21 06:24:12;;;;;;;25.00;13.57;;;10.50;43.30;;;;;;4961354;28;20062;-44
2022/03/21 06:26:40;;;;;;;26.15;13.88;;;10.50;43.30;;;;;;4961604;28;20567;-42
2022/03/21 06:29:08;;;;;;;21.00;11.98;;;10.50;43.20;;;;;;4959644;28;20428;-42
2022/03/21 06:31:36;;;;;;;22.38;12.30;;;10.50;43.20;;;;;;4958639;28;20582;-46
2022/03/21 06:34:04;;;;;;;21.83;13.25;;;10.60;43.30;;;;;;4960851;28;20078;-43
2022/03/21 06:36:33;;;;;;;22.38;13.85;;;10.60;43.40;;;;;;4958501;28;20054;-43
2022/03/21 06:39:00;;;;;;;23.20;13.40;;;10.60;43.20;;;;;;4961792;28;20047;-44
2022/03/21 06:41:28;;;;;;;20.48;13.57;;;10.60;43.00;;;;;;4959931;28;20057;-43
2022/03/21 06:43:55;;;;;;;21.05;13.13;;;10.60;43.10;;;;;;4959662;28;20065;-43
2022/03/21 06:46:23;;;;;;;24.30;13.73;;;10.60;43.10;;;;;;4959175;28;20055;-42
2022/03/21 06:48:50;;;;;;;23.90;14.20;;;10.60;43.00;;;;;;4956327;28;20062;-43
2022/03/21 06:51:17;;;;;;;24.55;13.95;;;10.70;43.10;;;;;;4962157;28;20051;-42
2022/03/21 06:53:46;;;;;;;24.58;13.82;;;10.70;43.00;;;;;;4960866;28;20143;-43
2022/03/21 06:56:14;;;;;;;28.13;13.80;;;10.70;43.00;;;;;;4959370;28;20054;-42
2022/03/21 06:58:42;;;;;;;23.25;13.32;;;10.70;43.00;;;;;;4960236;28;20054;-42
2022/03/21 07:01:09;;;;;;;22.45;12.88;;;10.80;43.00;;;;;;4962142;28;20552;-45
2022/03/21 07:03:37;;;;;;;23.80;13.48;;;10.70;43.10;;;;;;4962495;28;20431;-43
2022/03/21 07:06:04;;;;;;;23.05;13.20;;;10.70;43.10;;;;;;4958509;28;20062;-42
2022/03/21 07:08:32;;;;;;;28.58;14.02;;;10.80;43.10;;;;;;4962149;28;20058;-42
2022/03/21 07:11:00;;;;;;;26.17;14.63;;;10.80;43.20;;;;;;4959926;28;20065;-43
2022/03/21 07:13:29;;;;;;;22.95;14.05;;;10.80;43.20;;;;;;4960565;28;20059;-43
2022/03/21 07:15:57;;;;;;;24.10;13.77;;;10.90;43.10;;;;;;4958539;28;20059;-42
2022/03/21 07:18:25;;;;;;;28.48;13.88;;;10.90;42.90;;;;;;4960881;28;20059;-42
2022/03/21 07:20:53;;;;;;;23.88;13.13;;;10.90;42.70;;;;;;4965867;28;20084;-43
2022/03/21 07:23:20;;;;;;;22.80;13.77;;;11.00;42.60;;;;;;4965626;28;20063;-42
2022/03/21 07:25:49;;;;;;;23.27;13.32;;;11.00;42.60;;;;;;4966511;28;20063;-43
2022/03/21 07:28:18;;;;;;;23.60;13.95;;;11.00;42.40;;;;;;4967679;28;20051;-42
2022/03/21 07:30:45;;;;;;;22.70;13.15;;;11.10;42.20;;;;;;4966005;28;20057;-42
2022/03/21 07:33:13;;;;;;;21.83;13.60;;;11.10;42.40;;;;;;4965297;28;20066;-43
2022/03/21 07:35:41;;;;;;;23.10;13.23;;;11.10;42.40;;;;;;4966131;28;20070;-42
2022/03/21 07:38:09;;;;;;;24.77;13.20;;;11.10;42.50;;;;;;4965794;28;20505;-44
2022/03/21 07:40:36;;;;;;;23.48;13.73;;;11.10;42.20;;;;;;4965961;28;20055;-43
2022/03/21 07:43:04;;;;;;;23.38;13.85;;;11.20;42.20;;;;;;4966539;28;20063;-42
2022/03/21 07:48:18;;;;;;;21.77;13.35;;;11.20;42.00;;;;;;4972278;28;20066;-42
2022/03/21 07:50:45;;;;;;;23.08;14.38;;;11.20;42.10;;;;;;4965729;28;20062;-42
2022/03/21 07:53:12;;;;;;;23.63;14.60;;;11.20;42.00;;;;;;4965357;28;20062;-43
2022/03/21 07:55:40;;;;;;;24.38;14.13;;;11.30;42.10;;;;;;4966495;28;20058;-42
2022/03/21 07:58:07;;;;;;;23.02;14.52;;;11.30;42.10;;;;;;4966744;28;20063;-42
2022/03/21 08:00:36;;;;;;;23.98;13.27;;;11.30;42.00;;;;;;4965047;28;20055;-46
2022/03/21 08:03:04;;;;;;;24.40;13.98;;;11.30;42.10;;;;;;4965781;28;20392;-42
2022/03/21 08:05:31;;;;;;;25.50;14.18;;;11.30;42.20;;;;;;4965517;28;20058;-42
2022/03/21 08:07:59;;;;;;;24.13;14.13;;;11.30;42.00;;;;;;4964767;28;20054;-42
2022/03/21 08:10:29;;;;;;;24.92;13.98;;;11.40;42.00;;;;;;4966255;28;20054;-42
2022/03/21 08:12:56;;;;;;;22.23;12.75;;;11.40;42.00;;;;;;4966318;28;20380;-44
2022/03/21 08:15:26;;;;;;;24.27;14.20;;;11.40;42.00;;;;;;4964790;28;20054;-43
2022/03/21 08:17:57;;;;;;;25.33;13.32;;;11.40;42.20;;;;;;4965236;28;20059;-42
2022/03/21 08:20:26;;;;;;;27.50;14.45;;;11.50;42.30;;;;;;4964604;28;20058;-45
2022/03/21 08:22:54;;;;;;;27.25;14.10;;;11.50;42.30;;;;;;4968030;28;20062;-42
2022/03/21 08:25:23;;;;;;;44.75;24.25;;;11.50;42.50;;;;;;4970343;28;20134;-43
2022/03/21 08:27:57;;;;;;;46.25;23.45;;;11.50;42.50;;;;;;4968908;28;20059;-42
2022/03/21 08:30:46;;;;;;;;;;;11.60;42.50;;;;;;4971638;28;20055;-42
2022/03/21 08:33:18;;;;;;;25.40;14.90;;;11.60;42.60;;;;;;4968755;28;19929;-42
2022/03/21 08:36:12;;;;;;;24.42;14.35;;;11.60;42.30;;;;;;4970526;28;20063;-42
2022/03/21 08:42:18;;;;;;;22.42;13.15;;;11.70;42.50;;;;;;4943912;28;20051;-43
2022/03/21 08:44:46;;;;;;;27.83;14.60;;;11.80;42.60;;;;;;4965026;28;20054;-42
2022/03/21 08:47:13;;;;;;;31.17;16.52;;;11.80;42.60;;;;;;4965639;28;20054;-43
2022/03/21 08:49:42;;;;;;;33.10;17.95;;;11.80;42.80;;;;;;4965357;28;20063;-42
2022/03/21 08:52:09;;;;;;;30.92;14.65;;;11.90;42.80;;;;;;4965409;28;20058;-43
2022/03/21 08:54:37;;;;;;;23.90;14.40;;;11.90;43.00;;;;;;4964533;28;20074;-43
2022/03/21 08:57:05;;;;;;;29.02;13.75;;;11.90;43.00;;;;;;4964758;28;20054;-42
2022/03/21 08:59:33;;;;;;;22.02;13.93;;;12.00;43.00;;;;;;4965554;28;20061;-42
2022/03/21 09:02:00;;;;;;;40.42;14.73;;;12.00;42.90;;;;;;4964912;28;20054;-44
2022/03/21 09:04:28;;;;;;;23.92;13.18;;;12.10;42.80;;;;;;4964034;28;20514;-43
2022/03/21 09:06:57;;;;;;;21.23;13.02;;;12.20;43.10;;;;;;4965191;28;20594;-43
2022/03/21 09:09:25;;;;;;;25.67;13.23;;;12.20;43.10;;;;;;4964316;28;20057;-43
2022/03/21 09:11:52;;;;;;;26.95;14.35;;;12.30;43.20;;;;;;4964161;28;20050;-42
2022/03/21 09:14:20;;;;;;;24.70;13.93;;;12.40;42.80;;;;;;4964529;28;20059;-43
2022/03/21 09:16:50;;;;;;;29.42;15.95;;;12.50;43.00;;;;;;4964463;28;20069;-42
2022/03/21 09:19:18;;;;;;;45.67;21.75;;;12.60;43.20;;;;;;4963653;28;20054;-43
2022/03/21 09:21:46;;;;;;;26.85;16.15;;;12.60;43.40;;;;;;4964507;28;20074;-42
2022/03/21 09:24:16;;;;;;;32.22;14.85;;;12.70;43.20;;;;;;4962619;28;20051;-43
2022/03/21 09:26:44;;;;;;;23.60;14.15;;;12.80;43.20;;;;;;4964308;28;20055;-43
2022/03/21 09:29:11;;;;;;;22.48;14.35;;;12.90;42.70;;;;;;4963103;28;20054;-43
2022/03/21 09:31:40;;;;;;;21.00;13.10;;;13.00;42.60;;;;;;4964335;28;20055;-43
2022/03/21 09:34:08;;;;;;;26.80;13.45;;;13.00;42.70;;;;;;4964340;28;20063;-43
2022/03/21 09:36:36;;;;;;;23.60;14.48;;;13.20;42.90;;;;;;4964376;28;20070;-43
2022/03/21 09:39:04;;;;;;;26.45;13.55;;;13.20;42.80;;;;;;4961919;28;20431;-43
2022/03/21 09:41:34;;;;;;;28.33;14.45;;;13.30;42.60;;;;;;4961825;28;20074;-45
2022/03/21 09:44:03;;;;;;;26.00;14.52;;;13.30;42.70;;;;;;4963665;28;20506;-44
2022/03/21 09:46:31;;;;;;;20.77;12.25;;;13.40;42.70;;;;;;4964389;28;20065;-43
2022/03/21 09:48:59;;;;;;;21.48;14.02;;;13.40;42.80;;;;;;4963905;28;20063;-43
2022/03/21 09:51:28;;;;;;;23.63;14.77;;;13.50;42.90;;;;;;4964223;28;20062;-43
2022/03/21 09:53:57;;;;;;;22.27;13.85;;;13.50;42.90;;;;;;4963170;28;20397;-43
2022/03/21 09:56:25;;;;;;;25.15;13.98;;;13.60;42.90;;;;;;4964885;28;20057;-44
2022/03/21 09:58:59;;;;;;;22.67;13.57;;;13.60;43.00;;;;;;4964631;28;20054;-43
2022/03/21 10:01:29;;;;;;;23.25;13.85;;;13.70;43.00;;;;;;4963749;28;20043;-43
2022/03/21 10:03:57;;;;;;;24.00;13.02;;;13.70;42.70;;;;;;4962999;28;20050;-43
2022/03/21 10:06:30;;;;;;;31.92;13.35;;;13.80;42.80;;;;;;4964057;28;20054;-43
2022/03/21 10:09:14;;;;;;;20.23;12.90;;;13.80;43.00;;;;;;4962105;28;20059;-43
2022/03/21 10:11:50;;;;;;;24.20;13.68;;;13.90;43.10;;;;;;4963830;28;20385;-45
2022/03/21 10:14:26;;;;;;;29.83;15.75;;;13.90;43.30;;;;;;4964183;28;20518;-43
2022/03/21 10:16:56;;;;;;;33.50;17.20;;;14.00;43.20;;;;;;4964713;28;20454;-43
2022/03/21 10:19:24;;;;;;;30.25;14.98;;;14.10;43.30;;;;;;4962913;28;20613;-43
2022/03/21 10:22:02;;;;;;;27.40;14.15;;;14.10;42.80;;;;;;4962141;28;20058;-43
2022/03/21 10:24:35;;;;;;;28.08;14.00;;;14.20;42.30;;;;;;4962731;28;20051;-43
2022/03/21 10:27:03;;;;;;;26.87;12.33;;;14.30;42.60;;;;;;4962867;28;20384;-43
2022/03/21 10:29:32;;;;;;;28.50;13.07;;;14.30;42.70;;;;;;4963115;28;20583;-43
2022/03/21 10:32:00;;;;;;;23.58;13.95;;;14.40;42.90;;;;;;4963425;28;20051;-43
2022/03/21 10:34:33;;;;;;;22.42;13.43;;;14.40;42.80;;;;;;4962783;28;20058;-43
2022/03/21 10:37:03;;;;;;;22.20;12.57;;;14.50;42.40;;;;;;4959706;28;20097;-44
2022/03/21 10:39:35;;;;;;;24.15;13.20;;;14.60;42.40;;;;;;4962140;28;20051;-43
2022/03/21 10:42:04;;;;;;;22.67;13.57;;;14.60;42.40;;;;;;4961515;28;20058;-42
2022/03/21 10:44:34;;;;;;;21.00;13.15;;;14.70;42.50;;;;;;4961331;28;20495;-42
2022/03/21 10:47:04;;;;;;;20.77;12.85;;;14.80;42.50;;;;;;4960697;28;20174;-43
2022/03/21 10:49:34;;;;;;;21.00;12.82;;;14.90;42.60;;;;;;4963864;28;20074;-43
2022/03/21 10:52:03;;;;;;;25.58;13.35;;;15.00;42.50;;;;;;4962513;28;20055;-45
2022/03/21 10:54:41;;;;;;;22.92;12.50;;;15.00;42.30;;;;;;4963372;28;20062;-42
2022/03/21 10:57:27;;;;;;;24.90;11.88;;;15.10;42.50;;;;;;4966922;28;20062;-42
2022/03/21 11:00:14;;;;;;;22.13;12.48;;;15.20;42.60;;;;;;4964867;28;20078;-42
2022/03/21 11:02:56;;;;;;;21.75;12.40;;;15.30;42.50;;;;;;4963368;28;20065;-43
2022/03/21 11:05:25;;;;;;;20.00;12.10;;;15.40;42.30;;;;;;4959567;28;20069;-42
2022/03/21 11:07:54;;;;;;;19.85;11.10;;;15.50;42.30;;;;;;4965632;28;20411;-47
2022/03/21 11:10:23;;;;;;;20.02;11.65;;;15.60;42.20;;;;;;4966402;28;20055;-44
2022/03/21 11:12:50;;;;;;;22.88;12.35;;;15.70;42.10;;;;;;4959108;28;20051;-42
2022/03/21 11:15:19;;;;;;;21.58;12.02;;;15.80;42.10;;;;;;4961357;28;20050;-43
2022/03/21 11:17:47;;;;;;;20.02;11.52;;;15.80;41.90;;;;;;4955665;28;20419;-42
2022/03/21 11:20:15;;;;;;;20.50;11.52;;;15.90;41.90;;;;;;4961954;28;20066;-43
2022/03/21 11:22:44;;;;;;;20.33;11.55;;;15.90;41.50;;;;;;4960575;28;20058;-42
2022/03/21 11:25:13;;;;;;;29.00;12.70;;;16.00;41.80;;;;;;4963045;28;20521;-43
2022/03/21 11:28:07;;;;;;;27.38;11.85;;;16.10;41.60;;;;;;4963691;28;20443;-43
2022/03/21 11:31:11;;;;;;;21.55;11.93;;;16.10;41.50;;;;;;4958442;28;20054;-43
2022/03/21 11:33:43;;;;;;;24.00;12.20;;;16.20;41.60;;;;;;4960162;28;20062;-42
2022/03/21 11:36:12;;;;;;;23.77;11.40;;;16.30;41.80;;;;;;4957105;28;21032;-43
2022/03/21 11:38:45;;;;;;;20.95;12.07;;;16.30;41.80;;;;;;4963176;28;20057;-44
2022/03/21 11:41:18;;;;;;;21.17;11.38;;;16.40;41.70;;;;;;4961866;28;20057;-42
2022/03/21 11:43:47;;;;;;;23.40;12.48;;;16.40;41.60;;;;;;4953405;28;20059;-42
2022/03/21 11:46:25;;;;;;;18.75;10.90;;;16.50;42.30;;;;;;4953089;28;20063;-42
2022/03/21 11:48:55;;;;;;;21.70;11.50;;;16.50;41.60;;;;;;4952547;28;20047;-45
2022/03/21 11:51:35;;;;;;;17.70;10.60;;;16.60;41.60;;;;;;4953472;28;20055;-44
2022/03/21 11:54:03;;;;;;;22.38;11.15;;;16.60;41.60;;;;;;4953237;28;20051;-43
2022/03/21 11:56:55;;;;;;;20.42;11.48;;;16.70;41.60;;;;;;4962434;28;20050;-43
2022/03/21 11:59:52;;;;;;;18.35;10.82;;;16.70;41.30;;;;;;4952140;28;20062;-43
2022/03/21 12:05:52;;;;;;;17.05;9.85;;;16.90;41.40;;;;;;4962294;28;20506;-43
2022/03/21 12:08:49;;;;;;;20.27;10.93;;;16.90;41.20;;;;;;4962615;28;20081;-42
2022/03/21 12:12:01;;;;;;;21.60;10.75;;;17.00;41.20;;;;;;4964730;28;20058;-43
2022/03/21 12:14:36;;;;;;;17.77;9.70;;;17.10;40.90;;;;;;4963157;28;20058;-42
2022/03/21 12:17:33;;;;;;;16.60;9.55;;;17.10;40.90;;;;;;4963710;28;20058;-43
2022/03/21 12:20:20;;;;;;;17.58;8.93;;;17.10;40.90;;;;;;4924611;29;20107;-42
2022/03/21 12:22:52;;;;;;;15.13;9.57;;;17.20;41.10;;;;;;4957180;28;20054;-42
2022/03/21 12:25:22;;;;;;;18.85;9.07;;;17.20;41.30;;;;;;4959039;28;20508;-42
2022/03/21 12:27:52;;;;;;;15.77;8.57;;;17.20;41.30;;;;;;4963954;28;20067;-43
2022/03/21 12:30:39;;;;;;;16.88;9.85;;;17.20;41.50;;;;;;4960328;28;20062;-42
2022/03/21 12:33:30;;;;;;;13.07;8.27;;;17.20;41.30;;;;;;4962221;28;20135;-46
2022/03/21 12:36:06;;;;;;;17.40;8.88;;;17.30;41.50;;;;;;4962563;28;20058;-46
2022/03/21 12:38:39;;;;;;;16.75;8.98;;;17.30;41.60;;;;;;4960642;28;20069;-43
2022/03/21 12:41:13;;;;;;;11.75;6.95;;;17.30;41.40;;;;;;4965638;28;20524;-42
2022/03/21 12:43:47;;;;;;;16.65;7.55;;;17.40;41.30;;;;;;4963196;28;20067;-43
2022/03/21 12:46:18;;;;;;;11.93;7.05;;;17.40;41.20;;;;;;4964960;28;20078;-42
2022/03/21 12:48:47;;;;;;;13.65;7.70;;;17.50;41.30;;;;;;4962939;28;20065;-42
2022/03/21 12:51:23;;;;;;;13.48;8.10;;;17.50;41.50;;;;;;4962500;28;20507;-42
2022/03/21 12:53:56;;;;;;;17.00;7.60;;;17.60;42.00;;;;;;4958685;28;20066;-42
2022/03/21 12:56:26;;;;;;;16.55;7.95;;;17.60;41.60;;;;;;4962085;28;20050;-42
2022/03/21 12:58:58;;;;;;;13.65;7.75;;;17.70;41.40;;;;;;4963468;28;20065;-45
2022/03/21 13:01:26;;;;;;;16.83;8.00;;;17.70;41.00;;;;;;4964430;28;20408;-42
2022/03/21 13:10:32;;;;;;;12.48;6.97;;;17.80;41.10;;;;;;4957956;28;20070;-42
2022/03/21 13:12:35;;;;;;;16.23;8.13;;;17.80;41.10;;;;;;4970331;28;20062;-42
2022/03/21 13:15:06;;;;;;;14.43;7.03;;;17.90;40.80;;;;;;4959991;28;20530;-42